sensor_id;sensor_type;location;lat;lon;timestamp;temperature;humidity
11772;DHT22;12556;55.748;13.194;2024-02-21T00:02:21;6.60;99.90
11772;DHT22;12556;55.748;13.194;2024-02-21T00:04:48;6.60;99.90
11772;DHT22;12556;55.748;13.194;2024-02-21T00:07:14;6.60;99.90
11772;DHT22;12556;55.748;13.194;2024-02-21T00:09:41;6.60;99.90
11772;DHT22;12556;55.748;13.194;2024-02-21T00:12:08;6.60;99.90
11772;DHT22;12556;55.748;13.194;2024-02-21T00:14:37;6.60;99.90
11772;DHT22;12556;55.748;13.194;2024-02-21T00:17:03;6.60;99.90
11772;DHT22;12556;55.748;13.194;2024-02-21T00:19:40;6.60;99.90
11772;DHT22;12556;55.748;13.194;2024-02-21T00:22:07;6.70;99.90
11772;DHT22;12556;55.748;13.194;2024-02-21T00:24:34;6.70;99.90
11772;DHT22;12556;55.748;13.194;2024-02-21T00:27:01;6.70;99.90
11772;DHT22;12556;55.748;13.194;2024-02-21T00:29:28;6.70;99.90
11772;DHT22;12556;55.748;13.194;2024-02-21T00:31:55;6.70;99.90
11772;DHT22;12556;55.748;13.194;2024-02-21T00:34:22;6.70;99.90
11772;DHT22;12556;55.748;13.194;2024-02-21T00:36:50;6.70;99.90
11772;DHT22;12556;55.748;13.194;2024-02-21T00:39:17;6.80;99.90
11772;DHT22;12556;55.748;13.194;2024-02-21T00:41:44;6.70;99.90
11772;DHT22;12556;55.748;13.194;2024-02-21T00:44:11;6.70;99.90
11772;DHT22;12556;55.748;13.194;2024-02-21T00:46:37;6.70;99.90
11772;DHT22;12556;55.748;13.194;2024-02-21T00:49:04;6.70;99.90
11772;DHT22;12556;55.748;13.194;2024-02-21T00:51:32;6.70;99.90
11772;DHT22;12556;55.748;13.194;2024-02-21T00:54:00;6.70;99.90
11772;DHT22;12556;55.748;13.194;2024-02-21T00:56:28;6.70;99.90
11772;DHT22;12556;55.748;13.194;2024-02-21T00:58:55;6.60;99.90
11772;DHT22;12556;55.748;13.194;2024-02-21T01:01:22;6.70;99.90
11772;DHT22;12556;55.748;13.194;2024-02-21T01:03:49;6.60;99.90
11772;DHT22;12556;55.748;13.194;2024-02-21T01:06:16;6.70;99.90
11772;DHT22;12556;55.748;13.194;2024-02-21T01:08:43;6.70;99.90
11772;DHT22;12556;55.748;13.194;2024-02-21T01:11:11;6.70;99.90
11772;DHT22;12556;55.748;13.194;2024-02-21T01:13:38;6.70;99.90
11772;DHT22;12556;55.748;13.194;2024-02-21T01:16:06;6.70;99.90
11772;DHT22;12556;55.748;13.194;2024-02-21T01:18:33;6.70;99.90
11772;DHT22;12556;55.748;13.194;2024-02-21T01:21:00;6.70;99.90
11772;DHT22;12556;55.748;13.194;2024-02-21T01:23:26;6.70;99.90
11772;DHT22;12556;55.748;13.194;2024-02-21T01:25:53;6.70;99.90
11772;DHT22;12556;55.748;13.194;2024-02-21T01:28:22;6.70;99.90
11772;DHT22;12556;55.748;13.194;2024-02-21T01:30:49;6.70;99.90
11772;DHT22;12556;55.748;13.194;2024-02-21T01:33:16;6.70;99.90
11772;DHT22;12556;55.748;13.194;2024-02-21T01:35:43;6.70;99.90
11772;DHT22;12556;55.748;13.194;2024-02-21T01:38:10;6.70;99.90
11772;DHT22;12556;55.748;13.194;2024-02-21T01:40:37;6.70;99.90
11772;DHT22;12556;55.748;13.194;2024-02-21T01:43:04;6.70;99.90
11772;DHT22;12556;55.748;13.194;2024-02-21T01:45:43;6.70;99.90
11772;DHT22;12556;55.748;13.194;2024-02-21T01:48:10;6.70;99.90
11772;DHT22;12556;55.748;13.194;2024-02-21T01:50:37;6.70;99.90
11772;DHT22;12556;55.748;13.194;2024-02-21T01:53:04;6.70;99.90
11772;DHT22;12556;55.748;13.194;2024-02-21T01:55:30;6.70;99.90
11772;DHT22;12556;55.748;13.194;2024-02-21T01:57:57;6.70;99.90
11772;DHT22;12556;55.748;13.194;2024-02-21T02:00:25;6.70;99.90
11772;DHT22;12556;55.748;13.194;2024-02-21T02:02:54;6.60;99.90
11772;DHT22;12556;55.748;13.194;2024-02-21T02:05:21;6.70;99.90
11772;DHT22;12556;55.748;13.194;2024-02-21T02:07:48;6.70;99.90
11772;DHT22;12556;55.748;13.194;2024-02-21T02:10:15;6.70;99.90
11772;DHT22;12556;55.748;13.194;2024-02-21T02:12:42;6.60;99.90
11772;DHT22;12556;55.748;13.194;2024-02-21T02:15:09;6.70;99.90
11772;DHT22;12556;55.748;13.194;2024-02-21T02:17:36;6.70;99.90
11772;DHT22;12556;55.748;13.194;2024-02-21T02:20:06;6.70;99.90
11772;DHT22;12556;55.748;13.194;2024-02-21T02:22:36;6.70;99.90
11772;DHT22;12556;55.748;13.194;2024-02-21T02:25:05;6.60;99.90
11772;DHT22;12556;55.748;13.194;2024-02-21T02:27:32;6.60;99.90
11772;DHT22;12556;55.748;13.194;2024-02-21T02:29:59;6.60;99.90
11772;DHT22;12556;55.748;13.194;2024-02-21T02:32:26;6.60;99.90
11772;DHT22;12556;55.748;13.194;2024-02-21T02:34:53;6.60;99.90
11772;DHT22;12556;55.748;13.194;2024-02-21T02:37:21;6.50;99.90
11772;DHT22;12556;55.748;13.194;2024-02-21T02:39:47;6.60;99.90
11772;DHT22;12556;55.748;13.194;2024-02-21T02:42:16;6.60;99.90
11772;DHT22;12556;55.748;13.194;2024-02-21T02:44:43;6.60;99.90
11772;DHT22;12556;55.748;13.194;2024-02-21T02:47:10;6.60;99.90
11772;DHT22;12556;55.748;13.194;2024-02-21T02:49:37;6.60;99.90
11772;DHT22;12556;55.748;13.194;2024-02-21T02:52:04;6.60;99.90
11772;DHT22;12556;55.748;13.194;2024-02-21T02:54:31;6.60;99.90
11772;DHT22;12556;55.748;13.194;2024-02-21T02:56:58;6.60;99.90
11772;DHT22;12556;55.748;13.194;2024-02-21T02:59:26;6.60;99.90
11772;DHT22;12556;55.748;13.194;2024-02-21T03:01:53;6.60;99.90
11772;DHT22;12556;55.748;13.194;2024-02-21T03:04:20;6.60;99.90
11772;DHT22;12556;55.748;13.194;2024-02-21T03:06:47;6.70;99.90
11772;DHT22;12556;55.748;13.194;2024-02-21T03:09:14;6.70;99.90
11772;DHT22;12556;55.748;13.194;2024-02-21T03:11:41;6.60;99.90
11772;DHT22;12556;55.748;13.194;2024-02-21T03:14:09;6.70;99.90
11772;DHT22;12556;55.748;13.194;2024-02-21T03:16:38;6.60;99.90
11772;DHT22;12556;55.748;13.194;2024-02-21T03:19:05;6.70;99.90
11772;DHT22;12556;55.748;13.194;2024-02-21T03:21:32;6.70;99.90
11772;DHT22;12556;55.748;13.194;2024-02-21T03:23:59;6.70;99.90
11772;DHT22;12556;55.748;13.194;2024-02-21T03:26:26;6.70;99.90
11772;DHT22;12556;55.748;13.194;2024-02-21T03:28:53;6.70;99.90
11772;DHT22;12556;55.748;13.194;2024-02-21T03:31:20;6.70;99.90
11772;DHT22;12556;55.748;13.194;2024-02-21T03:33:47;6.70;99.90
11772;DHT22;12556;55.748;13.194;2024-02-21T03:36:14;6.80;99.90
11772;DHT22;12556;55.748;13.194;2024-02-21T03:38:41;6.80;99.90
11772;DHT22;12556;55.748;13.194;2024-02-21T03:41:08;6.90;99.90
11772;DHT22;12556;55.748;13.194;2024-02-21T03:43:37;6.90;99.90
11772;DHT22;12556;55.748;13.194;2024-02-21T03:46:04;6.90;99.90
11772;DHT22;12556;55.748;13.194;2024-02-21T03:48:30;6.90;99.90
11772;DHT22;12556;55.748;13.194;2024-02-21T03:50:59;6.90;99.90
11772;DHT22;12556;55.748;13.194;2024-02-21T03:53:26;6.90;99.90
11772;DHT22;12556;55.748;13.194;2024-02-21T03:55:53;6.90;99.90
11772;DHT22;12556;55.748;13.194;2024-02-21T03:58:20;6.90;99.90
11772;DHT22;12556;55.748;13.194;2024-02-21T04:00:48;6.90;99.90
11772;DHT22;12556;55.748;13.194;2024-02-21T04:03:14;7.00;99.90
11772;DHT22;12556;55.748;13.194;2024-02-21T04:05:41;7.00;99.90
11772;DHT22;12556;55.748;13.194;2024-02-21T04:08:10;7.00;99.90
11772;DHT22;12556;55.748;13.194;2024-02-21T04:10:37;7.00;99.90
11772;DHT22;12556;55.748;13.194;2024-02-21T04:13:04;7.00;99.90
11772;DHT22;12556;55.748;13.194;2024-02-21T04:15:31;7.10;99.90
11772;DHT22;12556;55.748;13.194;2024-02-21T04:17:58;7.00;99.90
11772;DHT22;12556;55.748;13.194;2024-02-21T04:20:25;6.90;99.90
11772;DHT22;12556;55.748;13.194;2024-02-21T04:22:52;6.90;99.90
11772;DHT22;12556;55.748;13.194;2024-02-21T04:25:20;7.00;99.90
11772;DHT22;12556;55.748;13.194;2024-02-21T04:27:47;6.90;99.90
11772;DHT22;12556;55.748;13.194;2024-02-21T04:30:14;7.00;99.90
11772;DHT22;12556;55.748;13.194;2024-02-21T04:32:42;7.00;99.90
11772;DHT22;12556;55.748;13.194;2024-02-21T04:35:09;7.00;99.90
11772;DHT22;12556;55.748;13.194;2024-02-21T04:37:36;7.00;99.90
11772;DHT22;12556;55.748;13.194;2024-02-21T04:40:03;7.00;99.90
11772;DHT22;12556;55.748;13.194;2024-02-21T04:42:31;7.00;99.90
11772;DHT22;12556;55.748;13.194;2024-02-21T04:44:58;7.00;99.90
11772;DHT22;12556;55.748;13.194;2024-02-21T04:47:25;7.00;99.90
11772;DHT22;12556;55.748;13.194;2024-02-21T04:49:52;7.00;99.90
11772;DHT22;12556;55.748;13.194;2024-02-21T04:52:19;7.00;99.90
11772;DHT22;12556;55.748;13.194;2024-02-21T04:54:46;7.00;99.90
11772;DHT22;12556;55.748;13.194;2024-02-21T04:57:13;7.00;99.90
11772;DHT22;12556;55.748;13.194;2024-02-21T04:59:44;7.00;99.90
11772;DHT22;12556;55.748;13.194;2024-02-21T05:02:10;7.00;99.90
11772;DHT22;12556;55.748;13.194;2024-02-21T05:04:37;7.10;99.90
11772;DHT22;12556;55.748;13.194;2024-02-21T05:07:05;7.10;99.90
11772;DHT22;12556;55.748;13.194;2024-02-21T05:09:32;7.10;99.90
11772;DHT22;12556;55.748;13.194;2024-02-21T05:11:59;7.10;99.90
11772;DHT22;12556;55.748;13.194;2024-02-21T05:14:26;7.10;99.90
11772;DHT22;12556;55.748;13.194;2024-02-21T05:16:55;7.10;99.90
11772;DHT22;12556;55.748;13.194;2024-02-21T05:19:21;7.10;99.90
11772;DHT22;12556;55.748;13.194;2024-02-21T05:21:48;7.20;99.90
11772;DHT22;12556;55.748;13.194;2024-02-21T05:24:15;7.20;99.90
11772;DHT22;12556;55.748;13.194;2024-02-21T05:26:42;7.20;99.90
11772;DHT22;12556;55.748;13.194;2024-02-21T05:29:09;7.30;99.90
11772;DHT22;12556;55.748;13.194;2024-02-21T05:31:56;6.50;99.90
11772;DHT22;12556;55.748;13.194;2024-02-21T05:34:23;7.20;99.90
11772;DHT22;12556;55.748;13.194;2024-02-21T05:36:50;7.10;99.90
11772;DHT22;12556;55.748;13.194;2024-02-21T05:39:18;7.10;99.90
11772;DHT22;12556;55.748;13.194;2024-02-21T05:41:45;7.10;99.90
11772;DHT22;12556;55.748;13.194;2024-02-21T05:44:12;7.10;99.90
11772;DHT22;12556;55.748;13.194;2024-02-21T05:46:39;7.10;99.90
11772;DHT22;12556;55.748;13.194;2024-02-21T05:49:07;7.00;99.90
11772;DHT22;12556;55.748;13.194;2024-02-21T05:51:34;6.90;99.90
11772;DHT22;12556;55.748;13.194;2024-02-21T05:54:02;6.90;99.90
11772;DHT22;12556;55.748;13.194;2024-02-21T05:56:28;6.90;99.90
11772;DHT22;12556;55.748;13.194;2024-02-21T05:58:55;6.80;99.90
11772;DHT22;12556;55.748;13.194;2024-02-21T06:01:22;6.80;99.90
11772;DHT22;12556;55.748;13.194;2024-02-21T06:03:49;6.80;99.90
11772;DHT22;12556;55.748;13.194;2024-02-21T06:06:18;6.80;99.90
11772;DHT22;12556;55.748;13.194;2024-02-21T06:08:44;6.80;99.90
11772;DHT22;12556;55.748;13.194;2024-02-21T06:11:11;6.70;99.90
11772;DHT22;12556;55.748;13.194;2024-02-21T06:13:39;6.70;99.90
11772;DHT22;12556;55.748;13.194;2024-02-21T06:16:07;6.60;99.90
11772;DHT22;12556;55.748;13.194;2024-02-21T06:18:35;6.50;99.90
11772;DHT22;12556;55.748;13.194;2024-02-21T06:21:03;6.50;99.90
11772;DHT22;12556;55.748;13.194;2024-02-21T06:23:31;6.50;99.90
11772;DHT22;12556;55.748;13.194;2024-02-21T06:25:58;6.40;99.90
11772;DHT22;12556;55.748;13.194;2024-02-21T06:28:25;6.40;99.90
11772;DHT22;12556;55.748;13.194;2024-02-21T06:30:52;6.30;99.90
11772;DHT22;12556;55.748;13.194;2024-02-21T06:33:19;6.30;99.90
11772;DHT22;12556;55.748;13.194;2024-02-21T06:35:50;6.30;99.90
11772;DHT22;12556;55.748;13.194;2024-02-21T06:38:18;6.30;99.90
11772;DHT22;12556;55.748;13.194;2024-02-21T06:40:47;6.20;99.90
11772;DHT22;12556;55.748;13.194;2024-02-21T06:43:20;6.20;99.90
11772;DHT22;12556;55.748;13.194;2024-02-21T06:45:48;6.20;99.90
11772;DHT22;12556;55.748;13.194;2024-02-21T06:48:17;6.20;99.90
11772;DHT22;12556;55.748;13.194;2024-02-21T06:50:44;6.20;99.90
11772;DHT22;12556;55.748;13.194;2024-02-21T06:53:11;6.20;99.90
11772;DHT22;12556;55.748;13.194;2024-02-21T06:55:38;6.20;99.90
11772;DHT22;12556;55.748;13.194;2024-02-21T06:58:06;6.20;99.90
11772;DHT22;12556;55.748;13.194;2024-02-21T07:00:38;6.30;99.90
11772;DHT22;12556;55.748;13.194;2024-02-21T07:03:04;6.30;99.90
11772;DHT22;12556;55.748;13.194;2024-02-21T07:05:31;6.30;99.90
11772;DHT22;12556;55.748;13.194;2024-02-21T07:07:58;6.40;99.90
11772;DHT22;12556;55.748;13.194;2024-02-21T07:10:25;6.40;99.90
11772;DHT22;12556;55.748;13.194;2024-02-21T07:12:53;6.40;99.90
11772;DHT22;12556;55.748;13.194;2024-02-21T07:15:21;6.50;99.90
11772;DHT22;12556;55.748;13.194;2024-02-21T07:17:52;6.40;99.90
11772;DHT22;12556;55.748;13.194;2024-02-21T07:20:19;6.50;99.90
11772;DHT22;12556;55.748;13.194;2024-02-21T07:22:46;6.50;99.90
11772;DHT22;12556;55.748;13.194;2024-02-21T07:25:13;6.50;99.90
11772;DHT22;12556;55.748;13.194;2024-02-21T07:27:40;6.50;99.90
11772;DHT22;12556;55.748;13.194;2024-02-21T07:30:08;6.50;99.90
11772;DHT22;12556;55.748;13.194;2024-02-21T07:32:36;6.50;99.90
11772;DHT22;12556;55.748;13.194;2024-02-21T07:35:04;6.50;99.90
11772;DHT22;12556;55.748;13.194;2024-02-21T07:37:31;6.50;99.90
11772;DHT22;12556;55.748;13.194;2024-02-21T07:39:58;6.50;99.90
11772;DHT22;12556;55.748;13.194;2024-02-21T07:42:25;6.50;99.90
11772;DHT22;12556;55.748;13.194;2024-02-21T07:44:52;6.50;99.90
11772;DHT22;12556;55.748;13.194;2024-02-21T07:47:19;6.50;99.90
11772;DHT22;12556;55.748;13.194;2024-02-21T07:49:47;6.50;99.90
11772;DHT22;12556;55.748;13.194;2024-02-21T07:52:14;6.40;99.90
11772;DHT22;12556;55.748;13.194;2024-02-21T07:54:41;6.40;99.90
11772;DHT22;12556;55.748;13.194;2024-02-21T07:57:08;6.40;99.90
11772;DHT22;12556;55.748;13.194;2024-02-21T07:59:35;6.40;99.90
11772;DHT22;12556;55.748;13.194;2024-02-21T08:02:02;6.40;99.90
11772;DHT22;12556;55.748;13.194;2024-02-21T08:04:32;6.40;99.90
11772;DHT22;12556;55.748;13.194;2024-02-21T08:07:00;6.40;99.90
11772;DHT22;12556;55.748;13.194;2024-02-21T08:09:29;6.40;99.90
11772;DHT22;12556;55.748;13.194;2024-02-21T08:11:57;6.50;99.90
11772;DHT22;12556;55.748;13.194;2024-02-21T08:14:24;6.40;99.90
11772;DHT22;12556;55.748;13.194;2024-02-21T08:16:51;6.40;99.90
11772;DHT22;12556;55.748;13.194;2024-02-21T08:19:20;6.50;99.90
11772;DHT22;12556;55.748;13.194;2024-02-21T08:21:47;6.50;99.90
11772;DHT22;12556;55.748;13.194;2024-02-21T08:24:16;6.40;99.90
11772;DHT22;12556;55.748;13.194;2024-02-21T08:26:43;6.50;99.90
11772;DHT22;12556;55.748;13.194;2024-02-21T08:29:10;6.50;99.90
11772;DHT22;12556;55.748;13.194;2024-02-21T08:31:37;6.50;99.90
11772;DHT22;12556;55.748;13.194;2024-02-21T08:34:04;6.50;99.90
11772;DHT22;12556;55.748;13.194;2024-02-21T08:36:31;6.50;99.90
11772;DHT22;12556;55.748;13.194;2024-02-21T08:38:58;6.50;99.90
11772;DHT22;12556;55.748;13.194;2024-02-21T08:41:26;6.50;99.90
11772;DHT22;12556;55.748;13.194;2024-02-21T08:43:54;6.40;99.90
11772;DHT22;12556;55.748;13.194;2024-02-21T08:46:21;6.40;99.90
11772;DHT22;12556;55.748;13.194;2024-02-21T08:48:50;6.50;99.90
11772;DHT22;12556;55.748;13.194;2024-02-21T08:51:17;6.40;99.90
11772;DHT22;12556;55.748;13.194;2024-02-21T08:53:44;6.40;99.90
11772;DHT22;12556;55.748;13.194;2024-02-21T08:56:11;6.50;99.90
11772;DHT22;12556;55.748;13.194;2024-02-21T08:58:40;6.40;99.90
11772;DHT22;12556;55.748;13.194;2024-02-21T09:01:07;6.40;99.90
11772;DHT22;12556;55.748;13.194;2024-02-21T09:03:36;6.40;99.90
11772;DHT22;12556;55.748;13.194;2024-02-21T09:06:04;6.40;99.90
11772;DHT22;12556;55.748;13.194;2024-02-21T09:08:31;6.40;99.90
11772;DHT22;12556;55.748;13.194;2024-02-21T09:10:58;6.40;99.90
11772;DHT22;12556;55.748;13.194;2024-02-21T09:13:26;6.40;99.90
11772;DHT22;12556;55.748;13.194;2024-02-21T09:15:54;6.40;99.90
11772;DHT22;12556;55.748;13.194;2024-02-21T09:18:21;6.40;99.90
11772;DHT22;12556;55.748;13.194;2024-02-21T09:20:48;6.40;99.90
11772;DHT22;12556;55.748;13.194;2024-02-21T09:23:15;6.40;99.90
11772;DHT22;12556;55.748;13.194;2024-02-21T09:25:42;6.30;99.90
11772;DHT22;12556;55.748;13.194;2024-02-21T09:28:09;6.30;99.90
11772;DHT22;12556;55.748;13.194;2024-02-21T09:30:36;6.30;99.90
11772;DHT22;12556;55.748;13.194;2024-02-21T09:33:06;6.30;99.90
11772;DHT22;12556;55.748;13.194;2024-02-21T09:35:32;6.20;99.90
11772;DHT22;12556;55.748;13.194;2024-02-21T09:38:00;6.20;99.90
11772;DHT22;12556;55.748;13.194;2024-02-21T09:40:28;6.20;99.90
11772;DHT22;12556;55.748;13.194;2024-02-21T09:43:02;6.20;99.90
11772;DHT22;12556;55.748;13.194;2024-02-21T09:45:33;6.20;99.90
11772;DHT22;12556;55.748;13.194;2024-02-21T09:48:28;6.20;99.90
11772;DHT22;12556;55.748;13.194;2024-02-21T09:50:57;6.10;99.90
11772;DHT22;12556;55.748;13.194;2024-02-21T09:53:24;6.20;99.90
11772;DHT22;12556;55.748;13.194;2024-02-21T09:55:52;6.20;99.90
11772;DHT22;12556;55.748;13.194;2024-02-21T09:58:19;6.20;99.90
11772;DHT22;12556;55.748;13.194;2024-02-21T10:00:46;6.20;99.90
11772;DHT22;12556;55.748;13.194;2024-02-21T10:03:13;6.20;99.90
11772;DHT22;12556;55.748;13.194;2024-02-21T10:05:47;6.20;99.90
11772;DHT22;12556;55.748;13.194;2024-02-21T10:08:15;6.20;99.90
11772;DHT22;12556;55.748;13.194;2024-02-21T10:10:43;6.20;99.90
11772;DHT22;12556;55.748;13.194;2024-02-21T10:13:10;6.20;99.90
11772;DHT22;12556;55.748;13.194;2024-02-21T10:15:38;6.20;99.90
11772;DHT22;12556;55.748;13.194;2024-02-21T10:18:04;6.30;99.90
11772;DHT22;12556;55.748;13.194;2024-02-21T10:20:32;6.20;99.90
11772;DHT22;12556;55.748;13.194;2024-02-21T10:23:05;6.30;99.90
11772;DHT22;12556;55.748;13.194;2024-02-21T10:25:35;6.30;99.90
11772;DHT22;12556;55.748;13.194;2024-02-21T10:28:04;6.30;99.90
11772;DHT22;12556;55.748;13.194;2024-02-21T10:30:31;6.30;99.90
11772;DHT22;12556;55.748;13.194;2024-02-21T10:32:58;6.40;99.90
11772;DHT22;12556;55.748;13.194;2024-02-21T10:35:28;6.40;99.90
11772;DHT22;12556;55.748;13.194;2024-02-21T10:37:56;6.40;99.90
11772;DHT22;12556;55.748;13.194;2024-02-21T10:40:25;6.40;99.90
11772;DHT22;12556;55.748;13.194;2024-02-21T10:42:56;6.50;99.90
11772;DHT22;12556;55.748;13.194;2024-02-21T10:45:29;6.50;99.90
11772;DHT22;12556;55.748;13.194;2024-02-21T10:47:56;6.50;99.90
11772;DHT22;12556;55.748;13.194;2024-02-21T10:50:26;6.50;99.90
11772;DHT22;12556;55.748;13.194;2024-02-21T10:53:01;6.60;99.90
11772;DHT22;12556;55.748;13.194;2024-02-21T10:55:38;6.60;99.90
11772;DHT22;12556;55.748;13.194;2024-02-21T10:58:09;6.60;99.90
11772;DHT22;12556;55.748;13.194;2024-02-21T11:00:37;6.70;99.90
11772;DHT22;12556;55.748;13.194;2024-02-21T11:03:05;6.70;99.90
11772;DHT22;12556;55.748;13.194;2024-02-21T11:05:32;6.70;99.90
11772;DHT22;12556;55.748;13.194;2024-02-21T11:08:00;6.70;99.90
11772;DHT22;12556;55.748;13.194;2024-02-21T11:10:27;6.80;99.90
11772;DHT22;12556;55.748;13.194;2024-02-21T11:13:05;6.80;99.90
11772;DHT22;12556;55.748;13.194;2024-02-21T11:15:33;6.90;99.90
11772;DHT22;12556;55.748;13.194;2024-02-21T11:18:00;6.90;99.90
11772;DHT22;12556;55.748;13.194;2024-02-21T11:20:34;6.90;99.90
11772;DHT22;12556;55.748;13.194;2024-02-21T11:23:01;6.90;99.90
11772;DHT22;12556;55.748;13.194;2024-02-21T11:25:28;6.90;99.90
11772;DHT22;12556;55.748;13.194;2024-02-21T11:28:01;7.00;99.90
11772;DHT22;12556;55.748;13.194;2024-02-21T11:30:30;6.90;99.90
11772;DHT22;12556;55.748;13.194;2024-02-21T11:33:01;7.00;99.90
11772;DHT22;12556;55.748;13.194;2024-02-21T11:35:32;7.00;99.90
11772;DHT22;12556;55.748;13.194;2024-02-21T11:38:10;7.00;99.90
11772;DHT22;12556;55.748;13.194;2024-02-21T11:40:41;7.00;99.90
11772;DHT22;12556;55.748;13.194;2024-02-21T11:43:10;7.00;99.90
11772;DHT22;12556;55.748;13.194;2024-02-21T11:45:37;7.10;99.90
11772;DHT22;12556;55.748;13.194;2024-02-21T11:48:06;7.10;99.90
11772;DHT22;12556;55.748;13.194;2024-02-21T11:50:34;7.10;99.90
11772;DHT22;12556;55.748;13.194;2024-02-21T11:53:01;7.20;99.90
11772;DHT22;12556;55.748;13.194;2024-02-21T11:55:28;7.20;99.90
11772;DHT22;12556;55.748;13.194;2024-02-21T11:57:55;6.50;99.90
11772;DHT22;12556;55.748;13.194;2024-02-21T12:00:25;7.30;99.90
11772;DHT22;12556;55.748;13.194;2024-02-21T12:02:52;7.40;99.90
11772;DHT22;12556;55.748;13.194;2024-02-21T12:05:21;7.40;99.90
11772;DHT22;12556;55.748;13.194;2024-02-21T12:07:48;7.40;99.90
11772;DHT22;12556;55.748;13.194;2024-02-21T12:10:15;7.40;99.90
11772;DHT22;12556;55.748;13.194;2024-02-21T12:12:41;7.50;99.90
11772;DHT22;12556;55.748;13.194;2024-02-21T12:15:08;7.50;99.90
11772;DHT22;12556;55.748;13.194;2024-02-21T12:17:37;7.50;99.90
11772;DHT22;12556;55.748;13.194;2024-02-21T12:20:07;7.50;99.90
11772;DHT22;12556;55.748;13.194;2024-02-21T12:22:35;7.50;99.90
11772;DHT22;12556;55.748;13.194;2024-02-21T12:25:03;7.50;99.90
11772;DHT22;12556;55.748;13.194;2024-02-21T12:27:33;7.50;99.90
11772;DHT22;12556;55.748;13.194;2024-02-21T12:30:00;7.50;99.90
11772;DHT22;12556;55.748;13.194;2024-02-21T12:32:36;7.50;99.90
11772;DHT22;12556;55.748;13.194;2024-02-21T12:35:04;7.50;99.90
11772;DHT22;12556;55.748;13.194;2024-02-21T12:37:31;7.50;99.90
11772;DHT22;12556;55.748;13.194;2024-02-21T12:39:58;7.50;99.90
11772;DHT22;12556;55.748;13.194;2024-02-21T12:42:26;7.60;99.90
11772;DHT22;12556;55.748;13.194;2024-02-21T12:44:54;7.60;99.90
11772;DHT22;12556;55.748;13.194;2024-02-21T12:47:21;7.60;99.90
11772;DHT22;12556;55.748;13.194;2024-02-21T12:49:50;7.60;99.90
11772;DHT22;12556;55.748;13.194;2024-02-21T12:52:17;7.70;99.90
11772;DHT22;12556;55.748;13.194;2024-02-21T12:54:44;7.80;99.90
11772;DHT22;12556;55.748;13.194;2024-02-21T12:57:11;7.80;99.90
11772;DHT22;12556;55.748;13.194;2024-02-21T12:59:38;7.80;99.90
11772;DHT22;12556;55.748;13.194;2024-02-21T13:02:05;7.80;99.90
11772;DHT22;12556;55.748;13.194;2024-02-21T13:04:34;7.90;99.90
11772;DHT22;12556;55.748;13.194;2024-02-21T13:07:02;7.90;99.90
11772;DHT22;12556;55.748;13.194;2024-02-21T13:09:29;8.00;99.90
11772;DHT22;12556;55.748;13.194;2024-02-21T13:11:56;8.00;99.90
11772;DHT22;12556;55.748;13.194;2024-02-21T13:14:23;8.10;99.90
11772;DHT22;12556;55.748;13.194;2024-02-21T13:16:50;8.20;99.90
11772;DHT22;12556;55.748;13.194;2024-02-21T13:19:17;8.30;99.90
11772;DHT22;12556;55.748;13.194;2024-02-21T13:21:43;8.20;99.90
11772;DHT22;12556;55.748;13.194;2024-02-21T13:24:12;8.20;99.90
11772;DHT22;12556;55.748;13.194;2024-02-21T13:26:39;8.20;99.90
11772;DHT22;12556;55.748;13.194;2024-02-21T13:29:06;8.30;99.90
11772;DHT22;12556;55.748;13.194;2024-02-21T13:31:32;8.30;99.90
11772;DHT22;12556;55.748;13.194;2024-02-21T13:33:59;8.40;99.90
11772;DHT22;12556;55.748;13.194;2024-02-21T13:36:26;8.50;99.90
11772;DHT22;12556;55.748;13.194;2024-02-21T13:38:53;8.50;99.90
11772;DHT22;12556;55.748;13.194;2024-02-21T13:41:21;8.50;99.90
11772;DHT22;12556;55.748;13.194;2024-02-21T13:43:49;8.50;99.90
11772;DHT22;12556;55.748;13.194;2024-02-21T13:46:16;8.50;99.90
11772;DHT22;12556;55.748;13.194;2024-02-21T13:48:43;8.50;99.90
11772;DHT22;12556;55.748;13.194;2024-02-21T13:51:10;8.50;99.90
11772;DHT22;12556;55.748;13.194;2024-02-21T13:53:37;8.50;99.90
11772;DHT22;12556;55.748;13.194;2024-02-21T13:56:05;7.70;99.90
11772;DHT22;12556;55.748;13.194;2024-02-21T13:58:33;8.50;99.90
11772;DHT22;12556;55.748;13.194;2024-02-21T14:01:01;8.60;99.90
11772;DHT22;12556;55.748;13.194;2024-02-21T14:03:28;8.60;99.90
11772;DHT22;12556;55.748;13.194;2024-02-21T14:05:55;8.50;99.90
11772;DHT22;12556;55.748;13.194;2024-02-21T14:08:22;8.50;99.90
11772;DHT22;12556;55.748;13.194;2024-02-21T14:10:49;8.50;99.90
11772;DHT22;12556;55.748;13.194;2024-02-21T14:13:16;8.50;99.90
11772;DHT22;12556;55.748;13.194;2024-02-21T14:15:45;8.50;99.90
11772;DHT22;12556;55.748;13.194;2024-02-21T14:18:13;8.50;99.90
11772;DHT22;12556;55.748;13.194;2024-02-21T14:20:42;8.50;99.90
11772;DHT22;12556;55.748;13.194;2024-02-21T14:23:09;8.50;99.90
11772;DHT22;12556;55.748;13.194;2024-02-21T14:25:36;8.50;99.90
11772;DHT22;12556;55.748;13.194;2024-02-21T14:28:05;8.50;99.90
11772;DHT22;12556;55.748;13.194;2024-02-21T14:30:32;8.50;99.90
11772;DHT22;12556;55.748;13.194;2024-02-21T14:33:00;8.50;99.90
11772;DHT22;12556;55.748;13.194;2024-02-21T14:35:27;8.40;99.90
11772;DHT22;12556;55.748;13.194;2024-02-21T14:37:54;8.40;99.90
11772;DHT22;12556;55.748;13.194;2024-02-21T14:40:22;8.30;99.90
11772;DHT22;12556;55.748;13.194;2024-02-21T14:42:49;8.20;99.90
11772;DHT22;12556;55.748;13.194;2024-02-21T14:45:16;8.20;99.90
11772;DHT22;12556;55.748;13.194;2024-02-21T14:47:43;8.20;99.90
11772;DHT22;12556;55.748;13.194;2024-02-21T14:50:11;8.20;99.90
11772;DHT22;12556;55.748;13.194;2024-02-21T14:52:38;8.20;99.90
11772;DHT22;12556;55.748;13.194;2024-02-21T14:55:06;8.20;99.90
11772;DHT22;12556;55.748;13.194;2024-02-21T14:57:33;8.20;99.90
11772;DHT22;12556;55.748;13.194;2024-02-21T15:00:01;8.10;99.90
11772;DHT22;12556;55.748;13.194;2024-02-21T15:02:33;8.10;99.90
11772;DHT22;12556;55.748;13.194;2024-02-21T15:05:00;8.10;99.90
11772;DHT22;12556;55.748;13.194;2024-02-21T15:07:30;8.00;99.90
11772;DHT22;12556;55.748;13.194;2024-02-21T15:09:57;8.00;99.90
11772;DHT22;12556;55.748;13.194;2024-02-21T15:12:24;8.00;99.90
11772;DHT22;12556;55.748;13.194;2024-02-21T15:14:51;7.90;99.90
11772;DHT22;12556;55.748;13.194;2024-02-21T15:17:18;7.90;99.90
11772;DHT22;12556;55.748;13.194;2024-02-21T15:19:45;7.80;99.90
11772;DHT22;12556;55.748;13.194;2024-02-21T15:22:13;7.70;99.90
11772;DHT22;12556;55.748;13.194;2024-02-21T15:24:42;7.70;99.90
11772;DHT22;12556;55.748;13.194;2024-02-21T15:27:08;7.60;99.90
11772;DHT22;12556;55.748;13.194;2024-02-21T15:29:36;7.50;99.90
11772;DHT22;12556;55.748;13.194;2024-02-21T15:32:04;7.50;99.90
11772;DHT22;12556;55.748;13.194;2024-02-21T15:34:31;7.40;99.90